Date,TemperatureHighF,TemperatureAvgF,TemperatureLowF,DewpointHighF,DewpointAvgF,DewpointLowF,HumidityHigh,HumidityAvg,HumidityLow,PressureMaxIn,PressureMinIn,WindSpeedMaxMPH,WindSpeedAvgMPH,GustSpeedMaxMPH,PrecipitationSumIn
2013-3-1,58.6,42.1,27.5,32.2,28.4,24.4,95,61,34,29.95,29.84,12,1,13,0.00
2013-3-2,47.3,37.5,30.0,40.8,32.4,24.4,97,82,62,29.93,29.85,11,1,14,0.00
2013-3-3,51.1,37.4,28.4,28.0,22.9,15.8,87,59,27,30.01,29.89,14,1,17,0.00
2013-3-4,61.2,41.1,22.6,35.3,21.7,12.5,89,53,17,30.16,30.00,11,1,11,0.00
2013-3-5,68.4,53.0,37.2,58.4,43.2,32.8,99,70,52,30.06,29.66,24,5,26,0.13
2013-3-6,52.0,42.0,32.9,34.2,25.8,18.7,81,54,34,30.11,29.76,28,8,30,0.00
2013-3-7,61.3,42.5,25.3,37.5,30.3,24.4,99,68,29,30.22,30.10,12,1,17,0.00
2013-3-8,64.2,46.2,30.4,37.4,26.4,15.7,95,52,16,30.27,30.15,12,1,15,0.00
2013-3-9,69.3,50.7,34.3,41.0,29.8,21.5,86,49,17,30.32,30.19,13,2,14,0.00
2013-3-10,70.9,56.3,41.2,49.5,40.6,32.3,93,60,26,30.25,30.11,17,3,20,0.00
2013-3-11,73.4,60.5,50.4,56.0,49.4,41.8,81,68,48,30.15,29.81,21,5,34,0.00
2013-3-12,71.1,59.8,50.5,59.5,48.8,36.6,99,71,34,29.99,29.76,14,3,19,0.22
2013-3-13,63.9,48.3,36.9,38.6,27.7,15.2,95,49,17,30.15,29.99,18,3,18,0.00
2013-3-14,58.5,42.5,28.8,34.4,21.6,13.4,87,48,19,30.30,30.15,12,1,14,0.00
2013-3-15,73.9,53.5,30.7,40.2,32.2,14.7,95,50,22,30.20,29.97,15,3,21,0.00
2013-3-16,81.0,66.3,52.9,46.0,41.3,36.4,68,43,21,29.99,29.84,26,5,26,0.00
2013-3-17,78.8,65.4,55.4,55.6,50.7,43.7,83,60,41,30.00,29.90,14,2,17,0.00
2013-3-18,68.9,58.4,46.6,61.8,53.9,46.3,99,85,69,30.03,29.80,14,2,19,0.82
2013-3-19,74.7,57.2,48.2,54.0,39.7,14.5,99,65,11,30.02,29.83,18,2,18,0.01
2013-3-20,63.5,51.0,40.3,38.2,24.4,12.5,77,39,17,30.09,29.83,11,1,14,0.00
2013-3-21,56.8,46.0,33.3,29.9,17.5,8.5,73,36,17,29.94,29.81,17,4,22,0.00
2013-3-22,51.1,42.1,32.7,36.3,21.1,10.2,76,45,24,30.05,29.93,9,1,14,0.00
2013-3-23,55.0,47.3,43.2,53.3,43.4,32.4,99,87,58,30.01,29.83,15,2,17,0.39
2013-3-24,49.5,47.4,44.8,49.2,46.9,44.0,99,98,94,29.85,29.53,21,4,25,1.19
2013-3-25,51.8,44.0,37.0,44.7,28.2,19.0,97,56,30,29.98,29.59,28,7,35,0.00
2013-3-26,52.2,40.3,29.1,29.0,24.6,21.0,79,55,33,30.19,29.95,15,2,18,0.00
2013-3-27,59.7,42.4,25.2,34.9,25.7,17.5,99,58,23,30.27,30.16,12,1,17,0.00
2013-3-28,64.2,46.1,27.9,35.5,26.0,15.8,96,54,16,30.30,30.17,13,1,21,0.00
2013-3-29,68.9,53.5,36.3,41.6,26.7,17.1,87,40,14,30.32,30.17,11,1,12,0.00
2013-3-30,77.5,61.1,50.2,51.9,43.3,33.6,81,54,31,30.19,30.02,11,1,14,0.00
2013-3-31,78.4,64.3,55.9,63.0,56.1,48.9,99,77,43,30.03,29.84,16,4,17,0.04